Terminal Aerodrome Forecast
Issued by NWS

Home | Current Version | Previous Version | Text Only | Print | Product List | Glossary On
Versions: 1 2 3 4 5 6 7 8 9 10 11 12 13 14 15 16 17 18 19 20
000
FTUS43 KICT 212333
TAFRSL
TAF
KRSL 212333Z 2200/2224 17013KT P6SM BKN018
      TEMPO 2200/2203 5SM BR BKN010
     FM220900 23012KT P6SM BKN020
     FM221100 28015KT P6SM SCT015 BKN100
     FM221600 31022G32KT P6SM SCT100=

USA.gov is the U.S. government's official web portal to all federal, state and local government web resources and services.